Time;durP1;ratioP1;P1;durP2;ratioP2;P2;SDS_P1;SDS_P2;PMS_P1;PMS_P2;Temp;Humidity;BMP_temperature;BMP_pressure;BME280_temperature;BME280_humidity;BME280_pressure;Samples;Min_cycle;Max_cycle;Signal;HPM_P1;HPM_P2
2021/03/13 00:01:49;;;;;;;6.70;2.10;;;4.20;88.10;;;;;;5055635;28;20176;-89
2021/03/13 00:04:21;;;;;;;1.70;1.60;;;4.20;87.90;;;;;;5075352;28;20191;-89
2021/03/13 00:06:55;;;;;;;1.63;1.53;;;4.20;88.00;;;;;;5059265;28;20207;-89
2021/03/13 00:09:25;;;;;;;2.77;1.83;;;4.10;88.20;;;;;;5059329;28;20174;-89
2021/03/13 00:11:58;;;;;;;2.70;1.57;;;4.10;88.40;;;;;;5059284;28;20172;-89
2021/03/13 00:14:24;;;;;;;4.90;2.03;;;4.00;88.30;;;;;;5077075;28;20216;-89
2021/03/13 00:16:50;;;;;;;3.73;1.60;;;4.00;88.40;;;;;;5077280;28;20214;-90
2021/03/13 00:19:25;;;;;;;4.40;1.80;;;3.90;88.70;;;;;;5059264;28;20177;-90
2021/03/13 00:22:00;;;;;;;1.97;1.37;;;4.00;88.60;;;;;;5077270;28;20174;-90
2021/03/13 00:24:33;;;;;;;5.50;2.00;;;4.00;88.40;;;;;;5077309;28;20570;-90
2021/03/13 00:27:01;;;;;;;1.67;1.33;;;4.00;88.50;;;;;;5059162;28;20192;-90
2021/03/13 00:29:29;;;;;;;1.73;1.17;;;3.90;88.40;;;;;;5076910;28;20172;-90
2021/03/13 00:32:01;;;;;;;6.57;1.70;;;3.80;88.90;;;;;;5058873;28;20209;-89
2021/03/13 00:34:34;;;;;;;2.87;1.47;;;3.80;88.80;;;;;;5059201;28;20213;-89
2021/03/13 00:37:06;;;;;;;1.47;1.13;;;3.70;89.10;;;;;;5058682;28;20184;-89
2021/03/13 00:39:33;;;;;;;4.87;2.30;;;3.70;89.30;;;;;;5059521;28;20273;-90
2021/03/13 00:42:02;;;;;;;3.47;1.90;;;3.70;89.20;;;;;;5059084;28;20180;-89
2021/03/13 00:44:37;;;;;;;4.37;1.93;;;3.70;89.40;;;;;;5058558;28;20587;-89
2021/03/13 00:47:10;;;;;;;15.13;2.27;;;3.70;89.20;;;;;;5059656;28;20194;-89
2021/03/13 00:49:47;;;;;;;2.67;1.57;;;3.70;89.10;;;;;;5059023;28;20177;-88
2021/03/13 00:52:16;;;;;;;4.03;2.00;;;3.60;89.20;;;;;;5076461;28;20163;-88
2021/03/13 00:54:46;;;;;;;10.67;2.77;;;3.60;89.30;;;;;;5076232;28;20596;-87
2021/03/13 00:57:21;;;;;;;2.93;1.70;;;3.60;89.50;;;;;;5076583;28;20539;-87
2021/03/13 00:59:51;;;;;;;5.77;2.00;;;3.60;89.40;;;;;;5076206;28;20244;-88
2021/03/13 01:02:21;;;;;;;2.10;1.43;;;3.50;89.50;;;;;;5076391;28;20589;-88
2021/03/13 01:04:55;;;;;;;3.37;1.70;;;3.60;89.50;;;;;;5076137;28;20175;-88
2021/03/13 01:07:28;;;;;;;2.17;1.40;;;3.60;89.20;;;;;;5058594;28;20199;-88
2021/03/13 01:10:05;;;;;;;2.40;1.50;;;3.60;89.20;;;;;;5058122;28;20171;-89
2021/03/13 01:12:38;;;;;;;2.53;1.43;;;3.60;89.10;;;;;;5058358;28;20178;-88
2021/03/13 01:15:15;;;;;;;2.00;1.10;;;3.50;89.00;;;;;;5057047;28;20169;-88
2021/03/13 01:17:42;;;;;;;5.27;1.80;;;3.50;88.90;;;;;;5057950;28;20177;-88
2021/03/13 01:20:18;;;;;;;2.30;1.87;;;3.50;88.80;;;;;;5057814;28;20183;-87
2021/03/13 01:22:54;;;;;;;2.40;1.60;;;3.60;88.80;;;;;;5075757;28;20196;-87
2021/03/13 01:25:26;;;;;;;2.87;1.70;;;3.50;88.80;;;;;;5057634;28;20212;-87
2021/03/13 01:27:59;;;;;;;2.43;1.40;;;3.50;88.80;;;;;;5057553;28;20286;-87
2021/03/13 01:30:31;;;;;;;3.53;2.17;;;3.60;88.40;;;;;;5075660;28;20172;-88
2021/03/13 01:33:02;;;;;;;4.33;2.27;;;3.60;88.30;;;;;;5075356;28;20266;-88
2021/03/13 01:35:34;;;;;;;3.67;1.30;;;3.70;88.00;;;;;;5075549;28;20223;-88
2021/03/13 01:38:09;;;;;;;2.90;1.83;;;3.70;88.10;;;;;;5057501;28;20179;-88
2021/03/13 01:40:44;;;;;;;2.53;1.00;;;3.70;88.10;;;;;;5075572;28;20157;-88
2021/03/13 01:43:18;;;;;;;1.00;0.90;;;3.60;88.20;;;;;;5075419;28;20196;-88
2021/03/13 01:45:50;;;;;;;2.17;1.20;;;3.70;87.70;;;;;;5058319;28;20183;-88
2021/03/13 01:48:31;;;;;;;2.30;1.13;;;3.70;87.20;;;;;;5075350;28;20183;-88
2021/03/13 01:51:07;;;;;;;4.50;1.50;;;3.70;87.30;;;;;;5057449;28;20227;-88
2021/03/13 01:53:38;;;;;;;9.07;1.77;;;3.70;87.40;;;;;;5057243;28;20201;-88
2021/03/13 01:56:11;;;;;;;1.83;1.03;;;3.70;87.40;;;;;;5057084;28;20176;-88
2021/03/13 01:58:41;;;;;;;1.60;1.27;;;3.80;87.40;;;;;;5075219;28;20226;-88
2021/03/13 02:01:10;;;;;;;9.03;2.33;;;3.90;87.40;;;;;;5057027;28;20175;-88
2021/03/13 02:03:47;;;;;;;1.27;1.17;;;3.90;87.30;;;;;;5074878;28;20204;-88
2021/03/13 02:06:27;;;;;;;6.17;2.17;;;4.00;87.20;;;;;;5056996;28;20241;-88
2021/03/13 02:09:24;;;;;;;4.50;1.73;;;4.00;87.30;;;;;;5057008;28;20178;-88
2021/03/13 02:12:11;;;;;;;8.63;3.07;;;4.00;87.60;;;;;;5057509;28;20543;-88
2021/03/13 02:15:07;;;;;;;7.50;2.70;;;3.90;88.30;;;;;;5074729;28;20196;-88
2021/03/13 02:17:56;;;;;;;13.53;2.47;;;3.80;89.00;;;;;;5074828;28;20291;-88
2021/03/13 02:20:47;;;;;;;7.30;2.27;;;3.80;89.10;;;;;;5074729;28;20180;-88
2021/03/13 02:23:24;;;;;;;8.37;3.00;;;3.80;89.00;;;;;;5056691;28;20193;-88
2021/03/13 02:26:10;;;;;;;9.10;3.03;;;3.80;89.00;;;;;;5056543;28;20233;-88
2021/03/13 02:29:11;;;;;;;8.37;3.60;;;3.80;89.30;;;;;;5074584;28;20148;-88
2021/03/13 02:31:46;;;;;;;9.10;3.27;;;3.80;89.20;;;;;;5037843;28;20184;-88
2021/03/13 02:34:22;;;;;;;8.93;3.07;;;3.70;89.10;;;;;;5056485;28;20209;-88
2021/03/13 02:36:54;;;;;;;9.17;3.47;;;3.60;89.20;;;;;;5056518;28;20171;-88
2021/03/13 02:39:22;;;;;;;8.03;3.70;;;3.60;89.30;;;;;;5074615;28;20192;-88
2021/03/13 02:42:01;;;;;;;6.53;3.30;;;3.60;89.50;;;;;;5056290;28;20186;-88
2021/03/13 02:44:31;;;;;;;7.93;3.90;;;3.70;89.50;;;;;;5056228;28;20209;-88
2021/03/13 02:47:04;;;;;;;11.03;4.33;;;3.60;89.50;;;;;;5056197;28;20202;-88
2021/03/13 02:49:41;;;;;;;7.23;3.57;;;3.70;89.60;;;;;;5056230;28;20184;-88
2021/03/13 02:52:10;;;;;;;11.03;4.40;;;3.60;89.80;;;;;;5056118;28;20168;-88
2021/03/13 02:54:47;;;;;;;5.93;2.97;;;3.70;89.70;;;;;;5056002;28;20195;-88
2021/03/13 02:57:20;;;;;;;7.80;4.67;;;3.60;89.80;;;;;;5056519;28;20176;-87
2021/03/13 02:59:47;;;;;;;9.53;4.30;;;3.70;90.10;;;;;;5056054;28;20173;-88
2021/03/13 03:02:17;;;;;;;12.33;4.80;;;3.70;90.00;;;;;;5056035;28;20181;-88
2021/03/13 03:04:51;;;;;;;10.27;3.97;;;3.70;90.00;;;;;;5056352;28;20329;-88
2021/03/13 03:07:26;;;;;;;9.57;5.73;;;3.60;90.00;;;;;;5055844;28;20204;-88
2021/03/13 03:09:54;;;;;;;6.67;4.57;;;3.70;90.20;;;;;;5055821;28;20178;-88
2021/03/13 03:12:31;;;;;;;18.87;4.10;;;3.60;90.20;;;;;;5073531;28;20182;-88
2021/03/13 03:15:01;;;;;;;14.50;5.40;;;3.50;90.30;;;;;;5073673;28;20179;-88
2021/03/13 03:17:28;;;;;;;13.13;6.17;;;3.50;90.40;;;;;;5073696;28;20648;-88
2021/03/13 03:20:01;;;;;;;6.20;4.27;;;3.50;90.60;;;;;;5055789;28;20186;-88
2021/03/13 03:22:34;;;;;;;13.63;6.43;;;3.50;90.70;;;;;;5073642;28;20245;-88
2021/03/13 03:25:11;;;;;;;19.37;6.03;;;3.40;90.70;;;;;;5073838;28;20159;-88
2021/03/13 03:27:51;;;;;;;11.73;7.13;;;3.50;90.70;;;;;;5055735;28;20293;-88
2021/03/13 03:30:29;;;;;;;19.67;7.40;;;3.50;90.70;;;;;;5056063;28;20531;-88
2021/03/13 03:32:59;;;;;;;11.07;6.43;;;3.50;90.60;;;;;;5055363;28;20210;-88
2021/03/13 03:35:31;;;;;;;15.90;7.97;;;3.50;90.60;;;;;;5073451;28;20178;-88
2021/03/13 03:38:02;;;;;;;16.03;7.40;;;3.50;90.70;;;;;;5072877;28;20168;-88
2021/03/13 03:40:34;;;;;;;20.87;8.33;;;3.60;90.60;;;;;;5073403;28;20184;-88
2021/03/13 03:43:21;;;;;;;15.03;7.40;;;3.50;90.70;;;;;;5055214;28;20196;-88
2021/03/13 03:45:59;;;;;;;16.80;7.53;;;3.50;90.70;;;;;;5073319;28;20171;-88
2021/03/13 03:48:33;;;;;;;13.60;7.10;;;3.50;90.70;;;;;;5055241;28;20180;-88
2021/03/13 03:51:09;;;;;;;16.60;8.17;;;3.40;90.60;;;;;;5055285;28;20174;-88
2021/03/13 03:53:47;;;;;;;17.53;8.80;;;3.30;90.70;;;;;;5055274;28;20196;-88
2021/03/13 03:56:22;;;;;;;19.73;8.77;;;3.20;90.80;;;;;;5055224;28;20184;-88
2021/03/13 03:58:54;;;;;;;19.60;7.53;;;3.20;91.00;;;;;;5055192;28;20188;-89
2021/03/13 04:01:31;;;;;;;16.43;7.80;;;3.20;91.10;;;;;;5055103;28;20177;-89
2021/03/13 04:04:08;;;;;;;16.73;7.73;;;3.20;91.20;;;;;;5055124;28;20199;-88
2021/03/13 04:06:40;;;;;;;17.00;7.83;;;3.20;91.30;;;;;;5054952;28;20212;-89
2021/03/13 04:09:13;;;;;;;16.13;8.00;;;3.20;91.40;;;;;;5055144;28;20181;-88
2021/03/13 04:11:51;;;;;;;23.03;7.87;;;3.20;91.30;;;;;;5055044;28;20177;-89
2021/03/13 04:14:21;;;;;;;18.07;8.57;;;3.20;91.40;;;;;;5072912;28;20186;-88
2021/03/13 04:16:51;;;;;;;18.30;8.97;;;3.20;91.40;;;;;;5055097;28;20251;-89
2021/03/13 04:19:25;;;;;;;17.67;8.33;;;3.20;91.50;;;;;;5055308;28;20176;-88
2021/03/13 04:21:59;;;;;;;18.07;8.57;;;3.20;91.60;;;;;;5055216;28;20176;-88
2021/03/13 04:24:31;;;;;;;16.27;8.33;;;3.20;91.70;;;;;;5055678;28;20277;-89
2021/03/13 04:27:03;;;;;;;20.23;9.30;;;3.20;91.70;;;;;;5072858;28;20297;-89
2021/03/13 04:29:29;;;;;;;15.93;7.73;;;3.20;91.70;;;;;;5055010;28;20706;-88
2021/03/13 04:32:03;;;;;;;23.80;9.03;;;3.20;91.70;;;;;;5072912;28;20162;-88
2021/03/13 04:34:34;;;;;;;27.30;8.77;;;3.20;91.80;;;;;;5072768;28;20206;-89
2021/03/13 04:37:07;;;;;;;22.70;8.70;;;3.20;91.80;;;;;;5072770;28;20181;-88
2021/03/13 04:39:34;;;;;;;15.77;7.73;;;3.20;91.90;;;;;;5054927;28;20173;-88
2021/03/13 04:42:11;;;;;;;17.57;8.13;;;3.20;91.90;;;;;;5054899;28;20204;-89
2021/03/13 04:44:44;;;;;;;17.87;8.20;;;3.20;92.00;;;;;;5054667;28;20224;-89
2021/03/13 04:47:17;;;;;;;17.70;9.00;;;3.20;92.10;;;;;;5054598;28;20207;-88
2021/03/13 04:49:51;;;;;;;14.90;8.67;;;3.30;92.10;;;;;;5055950;28;20174;-89
2021/03/13 04:52:21;;;;;;;18.73;9.07;;;3.30;92.20;;;;;;5058420;28;20176;-89
2021/03/13 04:54:52;;;;;;;22.20;10.30;;;3.30;92.20;;;;;;5076568;28;20167;-88
2021/03/13 04:57:21;;;;;;;23.83;9.03;;;3.40;92.20;;;;;;5058438;28;20177;-88
2021/03/13 04:59:50;;;;;;;15.13;9.17;;;3.50;92.30;;;;;;5058442;28;20185;-88
2021/03/13 05:02:29;;;;;;;26.10;10.20;;;3.50;92.30;;;;;;5076191;28;20187;-88
2021/03/13 05:05:01;;;;;;;18.90;9.20;;;3.50;92.20;;;;;;5058236;28;20181;-89
2021/03/13 05:07:31;;;;;;;16.70;9.90;;;3.60;92.20;;;;;;5058441;28;20213;-88
2021/03/13 05:09:59;;;;;;;22.63;9.80;;;3.60;92.20;;;;;;5058047;28;20204;-88
2021/03/13 05:12:33;;;;;;;23.43;8.97;;;3.60;92.20;;;;;;5058033;28;20168;-88
2021/03/13 05:15:11;;;;;;;18.87;10.30;;;3.60;92.20;;;;;;5058401;28;20662;-89
2021/03/13 05:17:40;;;;;;;22.37;10.90;;;3.70;92.20;;;;;;5058062;28;20552;-89
2021/03/13 05:20:13;;;;;;;21.97;9.87;;;3.70;92.20;;;;;;5057994;28;20188;-88
2021/03/13 05:22:51;;;;;;;20.23;11.30;;;3.70;92.20;;;;;;5057933;28;20341;-88
2021/03/13 05:25:26;;;;;;;17.50;9.97;;;3.60;92.20;;;;;;5076436;28;20193;-88
2021/03/13 05:27:59;;;;;;;22.33;10.97;;;3.70;92.20;;;;;;5075931;28;20199;-89
2021/03/13 05:30:31;;;;;;;17.70;11.00;;;3.70;92.20;;;;;;5076042;28;20524;-89
2021/03/13 05:33:05;;;;;;;25.07;12.17;;;3.70;92.20;;;;;;5075588;28;20207;-89
2021/03/13 05:35:37;;;;;;;15.60;11.17;;;3.70;92.20;;;;;;5057694;28;20179;-89
2021/03/13 05:38:11;;;;;;;21.10;11.33;;;3.70;92.20;;;;;;5057924;28;20185;-88
2021/03/13 05:40:44;;;;;;;23.23;11.97;;;3.70;92.30;;;;;;5075587;28;20184;-88
2021/03/13 05:43:18;;;;;;;19.17;12.33;;;3.80;92.30;;;;;;5057896;28;20227;-88
2021/03/13 05:45:54;;;;;;;23.73;13.80;;;3.80;92.30;;;;;;5075446;28;20168;-88
2021/03/13 05:48:25;;;;;;;20.33;12.67;;;3.90;92.30;;;;;;5057606;28;20173;-88
2021/03/13 05:51:01;;;;;;;24.13;13.80;;;3.90;92.30;;;;;;5057655;28;20194;-88
2021/03/13 05:53:37;;;;;;;23.40;14.03;;;4.00;92.30;;;;;;5057336;28;20664;-89
2021/03/13 05:56:03;;;;;;;24.37;13.20;;;4.00;92.40;;;;;;5057269;28;20174;-89
2021/03/13 05:58:39;;;;;;;20.93;11.77;;;4.10;92.50;;;;;;5057273;28;20180;-89
2021/03/13 06:01:11;;;;;;;17.67;13.20;;;4.10;92.60;;;;;;5056976;28;20646;-88
2021/03/13 06:03:43;;;;;;;24.80;13.83;;;4.10;92.60;;;;;;5057209;28;20198;-88
2021/03/13 06:06:11;;;;;;;21.50;14.50;;;4.20;92.70;;;;;;5057064;28;20210;-88
2021/03/13 06:08:40;;;;;;;29.47;16.70;;;4.20;92.80;;;;;;5057008;28;20174;-88
2021/03/13 06:11:13;;;;;;;20.53;14.47;;;4.20;92.90;;;;;;5057280;28;20611;-88
2021/03/13 06:13:47;;;;;;;26.53;16.67;;;4.30;92.90;;;;;;5056954;28;20229;-88
2021/03/13 06:16:13;;;;;;;30.70;16.53;;;4.30;93.00;;;;;;5056826;28;20202;-88
2021/03/13 06:18:56;;;;;;;29.40;17.40;;;4.30;93.10;;;;;;5057265;28;20592;-88
2021/03/13 06:21:41;;;;;;;25.63;17.03;;;4.30;93.10;;;;;;5075059;28;20187;-88
2021/03/13 06:24:21;;;;;;;31.17;18.23;;;4.30;93.10;;;;;;5056633;28;20196;-88
2021/03/13 06:26:59;;;;;;;23.50;14.47;;;4.30;93.20;;;;;;5056654;28;20208;-88
2021/03/13 06:29:29;;;;;;;25.60;14.83;;;4.40;93.20;;;;;;5056849;28;20545;-88
2021/03/13 06:32:13;;;;;;;28.73;16.23;;;4.50;93.20;;;;;;5057868;28;20169;-88
2021/03/13 06:34:47;;;;;;;29.00;16.80;;;4.50;93.20;;;;;;5080849;22;20230;-87
2021/03/13 06:37:29;;;;;;;25.13;15.30;;;4.50;93.20;;;;;;5074424;28;20172;-86
2021/03/13 06:39:57;;;;;;;26.97;13.83;;;4.50;93.20;;;;;;5074361;28;20179;-86
2021/03/13 06:42:36;;;;;;;24.00;14.97;;;4.60;93.20;;;;;;5056498;28;20231;-87
2021/03/13 06:45:07;;;;;;;24.70;13.93;;;4.60;93.20;;;;;;5074204;28;20198;-86
2021/03/13 06:47:48;;;;;;;25.43;14.57;;;4.70;93.10;;;;;;5056329;28;20264;-86
2021/03/13 06:50:22;;;;;;;20.03;11.33;;;4.70;93.20;;;;;;5056708;28;20634;-87
2021/03/13 06:52:55;;;;;;;18.60;10.63;;;4.70;93.10;;;;;;5056226;28;20204;-87
2021/03/13 06:55:24;;;;;;;20.50;8.60;;;4.70;93.10;;;;;;5074062;28;20170;-87
2021/03/13 06:57:52;;;;;;;16.70;9.70;;;4.80;93.00;;;;;;5056171;28;20179;-87
2021/03/13 07:00:36;;;;;;;17.73;9.07;;;4.80;92.90;;;;;;5073909;28;20262;-87
2021/03/13 07:03:14;;;;;;;18.23;9.80;;;4.80;92.90;;;;;;5056116;28;20175;-87
2021/03/13 07:05:47;;;;;;;14.73;6.43;;;4.80;92.90;;;;;;5073810;28;20170;-86
2021/03/13 07:08:32;;;;;;;9.17;5.87;;;4.80;92.90;;;;;;5073880;28;20224;-86
2021/03/13 07:11:09;;;;;;;6.60;4.70;;;4.90;92.70;;;;;;5073809;28;20174;-86
2021/03/13 07:13:37;;;;;;;12.10;6.37;;;4.90;92.70;;;;;;5055363;28;20214;-86
2021/03/13 07:16:30;;;;;;;11.33;7.07;;;4.80;92.70;;;;;;5056018;28;20174;-87
2021/03/13 07:19:08;;;;;;;10.50;6.10;;;4.90;92.60;;;;;;5055960;28;20654;-87
2021/03/13 07:21:42;;;;;;;6.73;5.90;;;4.80;92.50;;;;;;5073810;28;20547;-88
2021/03/13 07:24:19;;;;;;;7.33;4.27;;;4.80;92.40;;;;;;5055771;28;20214;-86
2021/03/13 07:26:46;;;;;;;5.13;3.77;;;4.80;92.20;;;;;;5073632;28;20692;-87
2021/03/13 07:29:19;;;;;;;6.17;4.60;;;4.80;92.40;;;;;;5055631;28;20178;-88
2021/03/13 07:32:01;;;;;;;8.07;4.47;;;4.80;92.50;;;;;;5073585;28;20192;-87
2021/03/13 07:34:41;;;;;;;5.47;3.57;;;4.80;92.60;;;;;;5055778;28;20217;-87
2021/03/13 07:37:21;;;;;;;7.63;4.10;;;4.80;92.60;;;;;;5073588;28;20175;-87
2021/03/13 07:39:52;;;;;;;6.33;4.23;;;4.80;92.50;;;;;;5055584;28;20228;-87
2021/03/13 07:42:23;;;;;;;5.97;3.50;;;4.80;92.50;;;;;;5055555;28;20202;-87
2021/03/13 07:45:01;;;;;;;5.57;4.10;;;4.80;92.60;;;;;;5055390;28;20230;-88
2021/03/13 07:47:31;;;;;;;7.13;5.07;;;4.80;92.70;;;;;;5073321;28;20759;-87
2021/03/13 07:50:02;;;;;;;3.17;2.83;;;4.80;92.80;;;;;;5073372;28;20178;-89
2021/03/13 07:52:31;;;;;;;5.97;3.90;;;4.80;92.70;;;;;;5073629;28;20159;-87
2021/03/13 07:55:04;;;;;;;5.57;3.47;;;4.90;92.60;;;;;;5055291;28;20202;-87
2021/03/13 07:57:31;;;;;;;4.27;3.10;;;4.90;92.40;;;;;;5055874;28;20269;-87
2021/03/13 07:59:57;;;;;;;2.93;2.67;;;4.90;92.40;;;;;;5055362;28;20577;-87
2021/03/13 08:02:29;;;;;;;3.30;2.70;;;4.90;92.40;;;;;;5073256;28;20175;-87
2021/03/13 08:05:08;;;;;;;5.93;2.83;;;4.90;92.60;;;;;;5056116;28;20663;-87
2021/03/13 08:07:59;;;;;;;2.83;2.27;;;4.80;92.60;;;;;;5055390;28;20294;-87
2021/03/13 08:10:44;;;;;;;4.93;2.63;;;4.80;92.50;;;;;;5073581;28;20178;-88
2021/03/13 08:13:32;;;;;;;2.50;2.07;;;4.90;92.60;;;;;;5055023;28;20172;-87
2021/03/13 08:16:06;;;;;;;2.67;1.90;;;4.90;92.70;;;;;;5073203;28;20663;-88
2021/03/13 08:18:39;;;;;;;5.87;2.23;;;4.90;92.70;;;;;;5055300;28;20175;-88
2021/03/13 08:21:27;;;;;;;5.60;2.10;;;4.90;92.60;;;;;;5055385;28;20201;-88
2021/03/13 08:24:00;;;;;;;1.67;1.53;;;4.90;92.80;;;;;;5062319;28;20203;-87
2021/03/13 08:26:36;;;;;;;1.10;1.10;;;5.00;92.60;;;;;;5059192;28;20202;-87
2021/03/13 08:29:04;;;;;;;5.10;2.30;;;5.00;92.70;;;;;;5059112;28;20181;-87
2021/03/13 08:31:46;;;;;;;3.63;1.87;;;5.00;92.80;;;;;;5059053;28;20243;-87
2021/03/13 08:34:20;;;;;;;1.83;1.40;;;5.00;92.80;;;;;;5076815;28;20259;-87
2021/03/13 08:36:51;;;;;;;1.50;1.33;;;5.00;92.70;;;;;;5076842;28;20273;-86
2021/03/13 08:39:36;;;;;;;1.50;1.03;;;5.00;92.70;;;;;;5059020;28;20598;-88
2021/03/13 08:42:02;;;;;;;2.93;1.73;;;5.10;92.60;;;;;;5059073;28;20210;-88
2021/03/13 08:44:40;;;;;;;1.30;0.93;;;5.10;92.60;;;;;;5076797;28;20274;-88
2021/03/13 08:47:14;;;;;;;1.50;1.40;;;5.10;92.80;;;;;;5059611;28;20592;-89
2021/03/13 08:49:48;;;;;;;2.00;1.13;;;5.10;92.90;;;;;;5058825;28;20265;-88
2021/03/13 08:52:22;;;;;;;2.20;1.20;;;5.10;92.90;;;;;;5058800;28;20190;-87
2021/03/13 08:54:49;;;;;;;2.03;1.00;;;5.10;92.90;;;;;;5058465;28;20187;-88
2021/03/13 08:57:44;;;;;;;2.90;1.70;;;5.20;92.90;;;;;;5058593;28;20194;-88
2021/03/13 09:00:17;;;;;;;0.80;0.80;;;5.20;92.90;;;;;;5058865;28;20201;-87
2021/03/13 09:02:47;;;;;;;1.73;1.63;;;5.20;92.80;;;;;;5076561;28;20258;-87
2021/03/13 09:05:21;;;;;;;2.10;1.47;;;5.30;92.90;;;;;;5076550;28;20191;-87
2021/03/13 09:07:51;;;;;;;1.40;1.30;;;5.30;92.80;;;;;;5076579;28;20195;-87
2021/03/13 09:10:23;;;;;;;1.50;1.17;;;5.30;92.90;;;;;;5058669;28;20187;-87
2021/03/13 09:12:53;;;;;;;2.73;1.07;;;5.40;92.90;;;;;;5058458;28;20218;-87
2021/03/13 09:15:21;;;;;;;2.20;1.40;;;5.40;93.10;;;;;;5076192;28;20191;-88
2021/03/13 09:17:48;;;;;;;1.30;1.17;;;5.40;93.10;;;;;;5058295;28;20190;-89
2021/03/13 09:20:20;;;;;;;0.80;0.80;;;5.40;93.10;;;;;;5076260;28;20668;-89
2021/03/13 09:22:51;;;;;;;1.00;1.00;;;5.50;93.30;;;;;;5058383;28;20178;-89
2021/03/13 09:25:25;;;;;;;1.47;1.37;;;5.40;93.50;;;;;;5058175;28;20203;-89
2021/03/13 09:27:56;;;;;;;1.50;1.40;;;5.40;93.70;;;;;;5075960;28;20199;-88
2021/03/13 09:30:27;;;;;;;0.77;0.77;;;5.40;93.80;;;;;;5076271;28;20533;-89
2021/03/13 09:32:56;;;;;;;0.63;0.63;;;5.50;92.70;;;;;;5058158;28;20200;-88
2021/03/13 09:35:29;;;;;;;1.20;0.70;;;5.50;91.60;;;;;;5058050;28;20191;-87
2021/03/13 09:37:57;;;;;;;3.40;1.03;;;5.50;90.80;;;;;;5075690;28;20176;-87
2021/03/13 09:40:30;;;;;;;2.77;1.17;;;5.70;88.40;;;;;;5057957;28;20171;-87
2021/03/13 09:43:01;;;;;;;1.67;0.60;;;5.70;88.60;;;;;;5076437;28;20163;-87
2021/03/13 09:45:27;;;;;;;1.33;0.87;;;5.80;88.00;;;;;;5075976;28;20182;-87
2021/03/13 09:47:56;;;;;;;2.73;0.73;;;5.80;87.80;;;;;;5076201;28;20187;-86
2021/03/13 09:50:39;;;;;;;0.93;0.87;;;5.80;88.00;;;;;;5057731;28;20195;-87
2021/03/13 09:53:18;;;;;;;1.00;0.80;;;5.80;87.50;;;;;;5057636;28;20179;-86
2021/03/13 09:55:48;;;;;;;0.73;0.73;;;6.00;87.20;;;;;;5057854;28;20188;-86
2021/03/13 09:58:26;;;;;;;2.33;1.13;;;6.00;87.90;;;;;;5075634;28;20167;-87
2021/03/13 10:01:01;;;;;;;1.60;1.03;;;6.10;87.90;;;;;;5075452;28;20167;-86
2021/03/13 10:03:33;;;;;;;4.33;1.07;;;6.10;87.50;;;;;;5075340;28;20230;-87
2021/03/13 10:06:01;;;;;;;2.30;0.83;;;6.10;88.00;;;;;;5075829;28;20191;-87
2021/03/13 10:08:35;;;;;;;2.77;1.13;;;6.20;88.30;;;;;;5057807;28;20222;-87
2021/03/13 10:11:05;;;;;;;4.47;0.93;;;6.40;88.70;;;;;;5057409;28;20175;-87
2021/03/13 10:13:35;;;;;;;3.23;1.30;;;6.80;88.40;;;;;;5075570;28;20223;-88
2021/03/13 10:16:12;;;;;;;6.90;1.03;;;7.00;87.50;;;;;;5075446;28;20286;-87
2021/03/13 10:18:39;;;;;;;5.30;1.67;;;7.10;86.70;;;;;;5057430;28;20215;-87
2021/03/13 10:21:11;;;;;;;4.47;1.10;;;7.40;88.10;;;;;;5057126;28;20177;-87
2021/03/13 10:23:43;;;;;;;1.73;1.10;;;7.50;87.20;;;;;;5075251;28;20677;-87
2021/03/13 10:26:17;;;;;;;1.50;1.20;;;7.50;86.00;;;;;;5075266;28;20213;-87
2021/03/13 10:28:48;;;;;;;8.10;1.40;;;7.60;85.80;;;;;;5057237;28;20192;-86
2021/03/13 10:31:37;;;;;;;3.37;1.90;;;7.80;85.30;;;;;;5075335;28;20593;-87
2021/03/13 10:34:19;;;;;;;3.47;1.20;;;7.80;85.00;;;;;;5074610;28;20206;-88
2021/03/13 10:36:51;;;;;;;5.77;1.37;;;8.00;85.40;;;;;;5074825;28;20526;-87
2021/03/13 10:39:18;;;;;;;4.53;2.43;;;7.90;83.90;;;;;;5074733;28;20174;-87
2021/03/13 10:42:00;;;;;;;5.10;2.30;;;7.60;82.80;;;;;;5056949;28;20185;-87
2021/03/13 10:44:37;;;;;;;1.97;1.27;;;7.50;83.40;;;;;;5056604;28;20709;-87
2021/03/13 10:47:28;;;;;;;6.33;1.53;;;7.50;83.90;;;;;;5056405;28;20201;-86
2021/03/13 10:50:05;;;;;;;1.90;1.33;;;7.40;83.40;;;;;;5074513;28;20681;-85
2021/03/13 10:52:35;;;;;;;4.23;1.70;;;7.50;84.00;;;;;;5074265;28;20582;-86
2021/03/13 10:55:08;;;;;;;5.63;1.53;;;7.50;84.20;;;;;;5056444;28;20226;-85
2021/03/13 10:58:02;;;;;;;3.30;1.43;;;7.60;83.70;;;;;;5056276;28;20186;-86
2021/03/13 11:00:29;;;;;;;1.83;1.30;;;7.60;85.30;;;;;;5074207;28;20175;-86
2021/03/13 11:02:59;;;;;;;3.93;1.90;;;7.70;85.20;;;;;;5073963;28;20178;-85
2021/03/13 11:05:32;;;;;;;5.13;1.73;;;7.30;84.20;;;;;;5056320;28;20185;-86
2021/03/13 11:07:59;;;;;;;5.13;1.80;;;7.30;85.80;;;;;;5055953;28;20227;-86
2021/03/13 11:10:36;;;;;;;5.87;1.53;;;7.60;86.30;;;;;;5073954;28;20177;-86
2021/03/13 11:13:02;;;;;;;6.37;1.77;;;8.00;86.00;;;;;;5056195;28;20257;-86
2021/03/13 11:15:37;;;;;;;9.60;1.60;;;8.00;82.30;;;;;;5056249;28;20186;-85
2021/03/13 11:18:04;;;;;;;7.57;2.43;;;8.10;83.90;;;;;;5073953;28;20178;-86
2021/03/13 11:20:33;;;;;;;9.40;2.50;;;8.10;83.60;;;;;;5074477;28;20218;-85
2021/03/13 11:23:02;;;;;;;6.37;1.47;;;7.90;83.00;;;;;;5055636;28;20186;-86
2021/03/13 11:25:35;;;;;;;2.07;1.40;;;7.70;83.50;;;;;;5056006;28;20177;-85
2021/03/13 11:28:07;;;;;;;1.93;1.30;;;7.60;83.50;;;;;;5073684;28;20245;-85
2021/03/13 11:30:39;;;;;;;7.70;1.77;;;7.50;82.50;;;;;;5056027;28;20273;-85
2021/03/13 11:33:05;;;;;;;7.13;1.50;;;7.40;82.70;;;;;;5073718;28;20174;-84
2021/03/13 11:35:35;;;;;;;8.93;1.93;;;7.20;82.40;;;;;;5056421;28;20195;-85
2021/03/13 11:38:08;;;;;;;7.50;1.67;;;5.80;82.60;;;;;;5056726;28;20521;-87
2021/03/13 11:40:37;;;;;;;6.23;1.60;;;4.90;84.60;;;;;;5055826;28;20175;-88
2021/03/13 11:43:08;;;;;;;6.07;1.40;;;4.00;87.00;;;;;;5055608;28;20182;-89
2021/03/13 11:45:41;;;;;;;6.03;1.63;;;3.90;88.80;;;;;;5074153;28;20532;-88
2021/03/13 11:48:08;;;;;;;7.07;2.00;;;3.90;89.70;;;;;;5055668;28;20635;-90
2021/03/13 11:50:40;;;;;;;6.47;1.80;;;4.00;90.30;;;;;;5073937;28;20176;-87
2021/03/13 11:53:11;;;;;;;3.57;1.67;;;4.20;90.60;;;;;;5074188;28;20155;-87
2021/03/13 11:55:43;;;;;;;4.43;1.87;;;4.30;90.80;;;;;;5073791;28;20174;-87
2021/03/13 11:58:16;;;;;;;11.00;2.00;;;4.60;90.70;;;;;;5073541;28;20697;-86
2021/03/13 12:00:50;;;;;;;3.80;1.33;;;5.10;90.80;;;;;;5055038;28;20179;-86
2021/03/13 12:03:22;;;;;;;3.90;0.60;;;5.70;90.70;;;;;;5055350;28;20289;-85
2021/03/13 12:05:54;;;;;;;3.73;1.57;;;6.00;89.40;;;;;;5055380;28;20175;-86
2021/03/13 12:08:30;;;;;;;6.87;1.53;;;6.30;88.10;;;;;;5073400;28;20199;-85
2021/03/13 12:11:03;;;;;;;8.23;1.63;;;6.60;88.60;;;;;;5055623;28;20178;-85
2021/03/13 12:13:35;;;;;;;7.23;1.43;;;6.80;87.30;;;;;;5073434;28;20202;-85
2021/03/13 12:16:06;;;;;;;6.97;1.70;;;7.00;87.00;;;;;;5055386;28;20175;-86
2021/03/13 12:18:38;;;;;;;6.67;1.90;;;7.20;87.00;;;;;;5055413;28;20170;-85
2021/03/13 12:21:10;;;;;;;4.33;2.00;;;7.30;86.10;;;;;;5055586;28;20176;-85
2021/03/13 12:23:41;;;;;;;6.10;1.63;;;7.50;86.30;;;;;;5074087;28;20209;-87
2021/03/13 12:26:07;;;;;;;9.20;1.57;;;7.80;86.50;;;;;;5055464;28;20181;-85
2021/03/13 12:28:33;;;;;;;10.70;1.77;;;7.80;83.20;;;;;;5073904;28;20199;-86
2021/03/13 12:31:01;;;;;;;7.17;1.57;;;7.90;83.00;;;;;;5073784;28;20252;-88
2021/03/13 12:33:32;;;;;;;4.73;1.43;;;8.10;84.40;;;;;;5073368;28;20238;-85
2021/03/13 12:35:58;;;;;;;6.03;1.80;;;8.30;82.50;;;;;;5055282;28;20198;-86
2021/03/13 12:38:25;;;;;;;1.57;1.13;;;8.50;83.30;;;;;;5055178;28;20179;-86
2021/03/13 12:40:54;;;;;;;7.33;1.70;;;8.30;83.70;;;;;;5055363;28;20184;-85
2021/03/13 12:43:22;;;;;;;2.87;1.13;;;8.30;83.20;;;;;;5055001;28;20743;-84
2021/03/13 12:45:48;;;;;;;3.90;1.80;;;8.00;82.90;;;;;;5055215;28;20710;-85
2021/03/13 12:48:17;;;;;;;4.10;1.23;;;7.70;82.30;;;;;;5073311;28;20608;-85
2021/03/13 12:50:45;;;;;;;5.63;2.03;;;7.60;82.60;;;;;;5055383;28;20174;-87
2021/03/13 12:53:11;;;;;;;6.30;2.03;;;7.60;83.30;;;;;;5054872;28;20171;-86
2021/03/13 12:55:43;;;;;;;4.67;1.70;;;7.40;82.40;;;;;;5054734;28;20554;-86
2021/03/13 12:58:10;;;;;;;6.20;1.87;;;7.30;83.60;;;;;;5073784;28;20293;-87
2021/03/13 13:00:39;;;;;;;7.60;2.27;;;7.20;83.80;;;;;;5073901;28;20181;-87
2021/03/13 13:03:11;;;;;;;8.80;2.47;;;7.00;84.50;;;;;;5073808;28;20179;-87
2021/03/13 13:05:39;;;;;;;6.37;1.87;;;6.70;86.40;;;;;;5055920;28;20266;-86
2021/03/13 13:08:06;;;;;;;13.30;2.63;;;6.30;87.20;;;;;;5055850;28;20207;-86
2021/03/13 13:10:32;;;;;;;6.80;1.90;;;6.50;88.00;;;;;;5056178;28;20225;-87
2021/03/13 13:13:04;;;;;;;7.90;1.40;;;6.50;87.10;;;;;;5142077;22;20224;-86
2021/03/13 13:15:35;;;;;;;6.07;2.10;;;6.40;87.50;;;;;;5078129;28;20194;-86
2021/03/13 13:18:04;;;;;;;3.30;1.50;;;6.40;87.50;;;;;;5077935;28;20652;-86
2021/03/13 13:20:33;;;;;;;5.13;2.23;;;6.50;86.40;;;;;;5078746;28;20550;-86
2021/03/13 13:23:00;;;;;;;7.17;1.77;;;6.70;85.00;;;;;;5096089;28;20191;-87
2021/03/13 13:25:28;;;;;;;11.37;2.10;;;6.90;83.80;;;;;;5096135;28;20177;-87